createdAt,value
2023-04-04T00:00:17.864Z,56.40
2023-04-04T00:02:50.189Z,57.90
2023-04-04T00:05:22.313Z,59.70
2023-04-04T00:07:54.411Z,63.50
2023-04-04T00:10:29.035Z,63.30
2023-04-04T00:13:01.406Z,71.20
2023-04-04T00:15:34.798Z,73.10
2023-04-04T00:18:07.338Z,74.80
2023-04-04T00:20:39.944Z,79.10
2023-04-04T00:23:12.340Z,75.30
2023-04-04T00:25:50.083Z,76.00
2023-04-04T00:28:22.371Z,76.80
2023-04-04T00:30:55.216Z,76.60
2023-04-04T00:33:27.500Z,76.00
2023-04-04T00:35:59.787Z,72.70
2023-04-04T00:38:31.929Z,72.70
2023-04-04T00:41:06.869Z,71.60
2023-04-04T00:43:39.764Z,71.30
2023-04-04T00:46:15.182Z,71.90
2023-04-04T00:48:48.513Z,73.50
2023-04-04T00:51:20.750Z,69.50
2023-04-04T00:56:30.027Z,70.00
2023-04-04T00:59:02.224Z,55.90
2023-04-04T01:01:34.466Z,56.10
2023-04-04T01:04:06.684Z,56.20
2023-04-04T01:06:38.825Z,56.30
2023-04-04T01:09:11.156Z,56.40
2023-04-04T01:11:46.174Z,56.30
2023-04-04T01:14:18.197Z,56.20
2023-04-04T01:16:51.214Z,56.30
2023-04-04T01:19:30.606Z,56.40
2023-04-04T01:22:03.928Z,56.50
2023-04-04T01:24:36.666Z,56.50
2023-04-04T01:27:11.283Z,56.50
2023-04-04T01:29:43.290Z,56.60
2023-04-04T01:32:19.853Z,56.60
2023-04-04T01:34:59.176Z,56.70
2023-04-04T01:37:37.532Z,56.80
2023-04-04T01:40:12.429Z,57.50
2023-04-04T01:42:47.942Z,59.80
2023-04-04T01:45:23.150Z,62.90
2023-04-04T01:47:56.938Z,68.50
2023-04-04T01:50:29.119Z,73.50
2023-04-04T01:53:00.995Z,72.90
2023-04-04T01:55:33.016Z,71.80
2023-04-04T01:58:07.644Z,70.60
2023-04-04T02:00:39.959Z,70.30
2023-04-04T02:03:12.185Z,67.90
2023-04-04T02:05:44.014Z,64.30
2023-04-04T02:08:16.049Z,61.50
2023-04-04T02:10:47.878Z,61.20
2023-04-04T02:13:22.620Z,60.90
2023-04-04T02:15:54.812Z,60.30
2023-04-04T02:18:26.930Z,60.50
2023-04-04T02:20:59.047Z,61.40
2023-04-04T02:23:31.315Z,62.00
2023-04-04T02:26:03.378Z,62.10
2023-04-04T02:28:37.846Z,64.00
2023-04-04T02:31:09.908Z,62.60
2023-04-04T02:33:41.767Z,62.10
2023-04-04T02:36:14.036Z,61.70
2023-04-04T02:38:46.094Z,60.20
2023-04-04T02:41:17.931Z,60.00
2023-04-04T02:43:52.691Z,59.00
2023-04-04T02:46:24.741Z,58.30
2023-04-04T02:48:57.593Z,58.40
2023-04-04T02:51:29.638Z,58.50
2023-04-04T02:54:03.191Z,58.40
2023-04-04T02:56:37.268Z,59.30
2023-04-04T02:59:11.934Z,59.60
2023-04-04T03:01:44.009Z,61.30
2023-04-04T03:04:16.360Z,64.40
2023-04-04T03:06:48.422Z,62.30
2023-04-04T03:09:20.489Z,63.20
2023-04-04T03:11:52.355Z,61.60
2023-04-04T03:14:27.077Z,61.00
2023-04-04T03:16:59.641Z,60.10
2023-04-04T03:19:32.291Z,61.50
2023-04-04T03:22:04.322Z,60.70
2023-04-04T03:24:38.138Z,60.20
2023-04-04T03:27:11.377Z,60.10
2023-04-04T03:29:46.055Z,61.00
2023-04-04T03:32:21.016Z,62.00
2023-04-04T03:34:53.209Z,62.20
2023-04-04T03:37:25.080Z,63.10
2023-04-04T03:39:57.172Z,62.80
2023-04-04T03:42:33.211Z,63.70
2023-04-04T03:45:09.387Z,65.40
2023-04-04T03:47:41.483Z,66.70
2023-04-04T03:50:13.406Z,70.30
2023-04-04T03:52:45.724Z,59.60
2023-04-04T03:55:18.071Z,59.60
2023-04-04T03:57:50.298Z,59.90
2023-04-04T04:00:25.493Z,63.50
2023-04-04T04:02:57.630Z,64.80
2023-04-04T04:05:29.622Z,65.50
2023-04-04T04:08:01.759Z,65.80
2023-04-04T04:10:34.317Z,67.00
2023-04-04T04:13:06.384Z,69.50
2023-04-04T04:15:41.379Z,70.80
2023-04-04T04:18:13.555Z,70.70
2023-04-04T04:20:45.411Z,62.00
2023-04-04T04:23:17.458Z,63.10
2023-04-04T04:25:49.591Z,63.40
2023-04-04T04:28:21.462Z,64.50
2023-04-04T04:30:56.551Z,65.10
2023-04-04T04:33:31.814Z,64.70
2023-04-04T04:36:05.220Z,64.10
2023-04-04T04:38:37.331Z,64.80
2023-04-04T04:41:09.184Z,66.20
2023-04-04T04:43:41.599Z,67.70
2023-04-04T04:46:16.310Z,68.90
2023-04-04T04:48:48.648Z,69.50
2023-04-04T04:51:20.732Z,69.60
2023-04-04T04:53:52.850Z,71.40
2023-04-04T04:56:24.801Z,72.00
2023-04-04T04:58:57.725Z,72.90
2023-04-04T05:01:32.670Z,69.20
2023-04-04T05:04:05.848Z,70.60
2023-04-04T05:06:38.989Z,70.20
2023-04-04T05:09:11.853Z,69.90
2023-04-04T05:11:43.992Z,69.70
2023-04-04T05:14:16.120Z,69.80
2023-04-04T05:16:50.909Z,69.70
2023-04-04T05:19:23.099Z,67.30
2023-04-04T05:21:54.981Z,67.30
2023-04-04T05:24:27.715Z,67.00
2023-04-04T05:26:59.820Z,67.60
2023-04-04T05:29:31.958Z,67.50
2023-04-04T05:32:06.697Z,68.70
2023-04-04T05:34:38.819Z,69.40
2023-04-04T05:37:11.013Z,70.00
2023-04-04T05:39:42.907Z,70.80
2023-04-04T05:42:14.966Z,71.00
2023-04-04T05:44:47.058Z,71.70
2023-04-04T05:47:22.198Z,72.10
2023-04-04T05:49:54.313Z,72.20
2023-04-04T05:52:26.782Z,72.70
2023-04-04T05:54:58.971Z,73.20
2023-04-04T05:57:30.825Z,73.50
2023-04-04T06:00:03.686Z,75.00
2023-04-04T06:02:39.044Z,72.90
2023-04-04T06:05:11.448Z,72.90
2023-04-04T06:07:43.490Z,72.50
2023-04-04T06:10:15.708Z,71.50
2023-04-04T06:12:47.840Z,70.80
2023-04-04T06:15:19.729Z,70.60
2023-04-04T06:17:54.522Z,70.50
2023-04-04T06:20:26.802Z,70.40
2023-04-04T06:23:01.153Z,70.40
2023-04-04T06:25:34.702Z,70.40
2023-04-04T06:28:06.792Z,70.00
2023-04-04T06:30:39.577Z,70.20
2023-04-04T06:33:14.485Z,70.30
2023-04-04T06:35:46.551Z,70.20
2023-04-04T06:38:18.644Z,70.40
2023-04-04T06:40:50.537Z,70.60
2023-04-04T06:43:23.576Z,70.50
2023-04-04T06:45:56.024Z,71.00
2023-04-04T06:48:30.858Z,70.70
2023-04-04T06:51:06.143Z,70.90
2023-04-04T06:53:38.491Z,71.20
2023-04-04T06:56:10.943Z,72.10
2023-04-04T06:58:43.283Z,62.10
2023-04-04T07:01:15.629Z,62.50
2023-04-04T07:03:53.154Z,62.50
2023-04-04T07:06:26.817Z,62.50
2023-04-04T07:08:58.929Z,62.60
2023-04-04T07:11:30.966Z,62.60
2023-04-04T07:14:03.047Z,62.60
2023-04-04T07:16:36.676Z,62.50
2023-04-04T07:19:11.377Z,62.50
2023-04-04T07:21:43.543Z,62.60
2023-04-04T07:24:15.808Z,62.60
2023-04-04T07:26:47.928Z,62.70
2023-04-04T07:29:21.526Z,62.70
2023-04-04T07:31:54.182Z,62.60
2023-04-04T07:34:30.036Z,62.60
2023-04-04T07:37:02.134Z,62.50
2023-04-04T07:39:34.004Z,62.60
2023-04-04T07:42:06.828Z,62.50
2023-04-04T07:44:38.941Z,62.50
2023-04-04T07:47:11.615Z,62.40
2023-04-04T07:49:46.609Z,62.50
2023-04-04T07:52:18.648Z,62.40
2023-04-04T07:54:50.645Z,62.40
2023-04-04T07:57:22.722Z,62.30
2023-04-04T07:59:54.771Z,62.30
2023-04-04T08:02:27.231Z,62.30
2023-04-04T08:05:01.979Z,62.20
2023-04-04T08:07:34.095Z,62.20
2023-04-04T08:10:08.238Z,62.70
2023-04-04T08:12:40.371Z,62.10
2023-04-04T08:15:12.561Z,62.00
2023-04-04T08:17:44.746Z,62.00
2023-04-04T08:20:19.481Z,61.90
2023-04-04T08:22:51.575Z,61.80
2023-04-04T08:25:24.155Z,62.20
2023-04-04T08:27:56.603Z,61.60
2023-04-04T08:30:29.736Z,61.60
2023-04-04T08:33:04.717Z,61.90
2023-04-04T08:35:40.911Z,61.40
2023-04-04T08:38:12.989Z,61.20
2023-04-04T08:40:48.108Z,61.10
2023-04-04T08:43:21.755Z,61.00
2023-04-04T08:45:55.089Z,60.90
2023-04-04T08:48:30.043Z,60.90
2023-04-04T08:51:05.186Z,60.90
2023-04-04T08:53:38.812Z,60.80
2023-04-04T08:56:11.266Z,60.70
2023-04-04T08:58:43.408Z,60.60
2023-04-04T09:01:16.650Z,60.50
2023-04-04T09:03:51.063Z,60.40
2023-04-04T09:06:28.074Z,60.30
2023-04-04T09:09:01.662Z,60.30
2023-04-04T09:11:35.050Z,60.10
2023-04-04T09:14:07.309Z,60.10
2023-04-04T09:16:39.477Z,60.00
2023-04-04T09:19:11.545Z,59.80
2023-04-04T09:21:49.794Z,59.70
2023-04-04T09:24:21.640Z,59.60
2023-04-04T09:26:54.372Z,59.60
2023-04-04T09:29:26.477Z,59.60
2023-04-04T09:31:58.664Z,59.60
2023-04-04T09:34:31.276Z,59.40
2023-04-04T09:37:06.403Z,59.40
2023-04-04T09:39:39.348Z,59.20
2023-04-04T09:42:12.469Z,59.20
2023-04-04T09:44:44.799Z,59.00
2023-04-04T09:50:07.645Z,58.80
2023-04-04T09:52:44.455Z,58.80
2023-04-04T09:55:17.359Z,58.60
2023-04-04T09:57:49.470Z,58.60
2023-04-04T10:00:21.711Z,58.50
2023-04-04T10:02:58.336Z,58.30
2023-04-04T10:05:31.066Z,58.20
2023-04-04T10:08:17.422Z,58.10
2023-04-04T10:11:02.620Z,58.00
2023-04-04T10:13:42.373Z,57.90
2023-04-04T10:16:15.498Z,57.80
2023-04-04T10:18:48.560Z,57.90
2023-04-04T10:21:21.416Z,57.90
2023-04-04T10:23:58.893Z,57.60
2023-04-04T10:26:30.967Z,57.50
2023-04-04T10:29:05.152Z,57.40
2023-04-04T10:31:41.590Z,57.20
2023-04-04T10:34:20.880Z,57.20
2023-04-04T10:36:58.409Z,57.20
2023-04-04T10:39:35.296Z,57.00
2023-04-04T10:42:08.026Z,56.90
2023-04-04T10:44:40.728Z,56.80
2023-04-04T10:47:16.960Z,56.80
2023-04-04T10:49:50.878Z,56.50
2023-04-04T10:52:24.869Z,56.50
2023-04-04T10:55:06.457Z,56.30
2023-04-04T10:57:41.952Z,56.30
2023-04-04T11:00:18.888Z,56.30
2023-04-04T11:02:54.656Z,56.20
2023-04-04T11:05:27.126Z,56.10
2023-04-04T11:08:07.470Z,56.00
2023-04-04T11:10:44.817Z,56.00
2023-04-04T11:13:18.432Z,55.80
2023-04-04T11:15:56.887Z,55.70
2023-04-04T11:18:47.251Z,55.60
2023-04-04T11:21:20.834Z,55.50
2023-04-04T11:24:14.885Z,55.60
2023-04-04T11:26:49.928Z,55.40
2023-04-04T11:29:54.655Z,55.40
2023-04-04T11:32:52.812Z,55.30
2023-04-04T11:35:29.225Z,55.40
2023-04-04T11:38:02.191Z,55.40
2023-04-04T11:40:41.835Z,55.40
2023-04-04T11:43:17.187Z,55.30
2023-04-04T11:45:49.654Z,55.20
2023-04-04T11:48:23.901Z,55.20
2023-04-04T11:50:57.567Z,55.30
2023-04-04T11:53:32.696Z,55.50
2023-04-04T11:56:04.867Z,55.60
2023-04-04T11:58:40.786Z,55.80
2023-04-04T12:01:12.878Z,55.90
2023-04-04T12:03:45.177Z,56.00
2023-04-04T12:06:18.200Z,56.10
2023-04-04T12:08:50.350Z,56.10
2023-04-04T12:19:51.525Z,59.30
2023-04-04T12:21:08.703Z,55.00
2023-04-04T12:23:47.109Z,54.20
2023-04-04T12:26:19.705Z,55.60
2023-04-04T12:28:55.433Z,52.70
2023-04-04T12:31:28.375Z,51.90
2023-04-04T12:34:03.639Z,51.20
2023-04-04T12:36:38.328Z,50.70
2023-04-04T12:39:12.354Z,50.10
2023-04-04T12:44:42.560Z,49.40
2023-04-04T12:51:21.600Z,48.30
2023-04-04T13:21:13.805Z,59.70
2023-04-04T13:26:21.760Z,43.20
2023-04-04T13:28:53.847Z,43.20
2023-04-04T13:31:26.561Z,42.70
2023-04-04T13:33:58.741Z,42.40
2023-04-04T13:36:31.472Z,41.90
2023-04-04T13:39:06.124Z,41.80
2023-04-04T13:41:38.228Z,41.80
2023-04-04T13:44:10.301Z,41.40
2023-04-04T13:46:42.660Z,40.90
2023-04-04T13:49:14.787Z,40.60
2023-04-04T13:51:48.222Z,40.40
2023-04-04T13:54:22.855Z,40.40
2023-04-04T13:56:55.824Z,40.50
2023-04-04T13:59:27.991Z,40.30
2023-04-04T14:02:00.170Z,40.00
2023-04-04T14:04:32.315Z,39.60
2023-04-04T14:07:04.378Z,39.60
2023-04-04T14:09:39.368Z,39.40
2023-04-04T14:12:11.451Z,38.90
2023-04-04T14:14:43.480Z,38.90
2023-04-04T14:17:15.579Z,38.80
2023-04-04T14:19:47.606Z,38.80
2023-04-04T14:22:19.673Z,38.50
2023-04-04T14:24:54.297Z,38.40
2023-04-04T14:27:26.483Z,38.20
2023-04-04T14:29:58.616Z,38.20
2023-04-04T14:32:31.813Z,38.60
2023-04-04T14:35:05.364Z,38.10
2023-04-04T14:37:37.756Z,38.00
2023-04-04T14:40:13.361Z,37.80
2023-04-04T14:42:45.393Z,37.80
2023-04-04T14:45:17.836Z,38.00
2023-04-04T14:47:49.861Z,37.90
2023-04-04T14:50:21.960Z,37.90
2023-04-04T14:52:56.615Z,37.70
2023-04-04T14:55:31.681Z,37.60
2023-04-04T14:58:03.796Z,37.40
2023-04-04T15:00:36.308Z,37.40
2023-04-04T15:03:08.504Z,37.50
2023-04-04T15:05:42.592Z,37.70
2023-04-04T15:08:14.885Z,37.60
2023-04-04T15:10:49.505Z,37.60
2023-04-04T15:13:21.534Z,37.80
2023-04-04T15:15:53.626Z,37.90
2023-04-04T15:18:25.842Z,37.90
2023-04-04T15:20:58.722Z,37.90
2023-04-04T15:23:31.371Z,37.80
2023-04-04T15:26:06.491Z,37.70
2023-04-04T15:28:38.532Z,37.40
2023-04-04T15:31:14.116Z,37.60
2023-04-04T15:33:46.181Z,37.80
2023-04-04T15:36:18.471Z,37.80
2023-04-04T15:38:50.772Z,37.90
2023-04-04T15:41:25.447Z,38.10
2023-04-04T15:43:57.679Z,37.90
2023-04-04T15:46:30.645Z,37.90
2023-04-04T15:49:02.913Z,37.80
2023-04-04T15:51:36.355Z,37.80
2023-04-04T15:54:08.394Z,37.70
2023-04-04T15:56:43.087Z,37.60
2023-04-04T15:59:15.127Z,37.70
2023-04-04T16:01:47.197Z,37.80
2023-04-04T16:04:19.417Z,37.80
2023-04-04T16:06:51.468Z,37.80
2023-04-04T16:09:23.639Z,37.70
2023-04-04T16:11:58.471Z,37.80
2023-04-04T16:14:30.586Z,37.80
2023-04-04T16:17:03.330Z,37.80
2023-04-04T16:19:35.382Z,37.80
2023-04-04T16:22:08.081Z,37.90
2023-04-04T16:24:40.595Z,38.00
2023-04-04T16:27:15.296Z,38.10
2023-04-04T16:29:47.301Z,38.20
2023-04-04T16:32:19.351Z,38.30
2023-04-04T16:34:51.392Z,38.30
2023-04-04T16:37:23.644Z,38.20
2023-04-04T16:39:56.660Z,38.20
2023-04-04T16:42:31.428Z,38.40
2023-04-04T16:45:03.974Z,38.40
2023-04-04T16:47:36.797Z,38.60
2023-04-04T16:50:09.933Z,38.60
2023-04-04T16:52:42.042Z,38.80
2023-04-04T16:55:14.112Z,38.70
2023-04-04T16:57:48.710Z,38.80
2023-04-04T17:00:21.689Z,39.00
2023-04-04T17:02:53.862Z,39.10
2023-04-04T17:05:26.006Z,39.10
2023-04-04T17:07:58.038Z,39.10
2023-04-04T17:10:30.219Z,39.30
2023-04-04T17:13:06.590Z,39.50
2023-04-04T17:15:38.692Z,39.60
2023-04-04T17:18:10.806Z,39.70
2023-04-04T17:20:43.777Z,39.80
2023-04-04T17:23:16.195Z,40.00
2023-04-04T17:25:48.228Z,40.10
2023-04-04T17:28:22.929Z,40.20
2023-04-04T17:30:54.970Z,40.30
2023-04-04T17:33:27.592Z,40.40
2023-04-04T17:35:59.639Z,40.70
2023-04-04T17:38:31.963Z,40.80
2023-04-04T17:41:04.473Z,40.90
2023-04-04T17:43:39.150Z,41.00
2023-04-04T17:46:11.212Z,41.20
2023-04-04T17:48:43.567Z,41.30
2023-04-04T17:51:15.913Z,41.40
2023-04-04T17:53:48.019Z,41.50
2023-04-04T17:56:20.078Z,41.50
2023-04-04T17:58:55.694Z,41.60
2023-04-04T18:01:29.532Z,41.70
2023-04-04T18:04:01.740Z,41.80
2023-04-04T18:06:33.826Z,41.90
2023-04-04T18:09:05.870Z,42.00
2023-04-04T18:11:39.972Z,42.20
2023-04-04T18:14:14.987Z,42.30
2023-04-04T18:16:47.700Z,42.40
2023-04-04T18:19:19.749Z,42.40
2023-04-04T18:21:51.818Z,42.60
2023-04-04T18:24:26.079Z,42.60
2023-04-04T18:26:58.133Z,42.80
2023-04-04T18:29:32.809Z,42.90
2023-04-04T18:32:05.288Z,43.10
2023-04-04T18:34:37.363Z,43.20
2023-04-04T18:37:09.499Z,54.30
2023-04-04T18:39:41.541Z,43.40
2023-04-04T18:42:13.724Z,43.50
2023-04-04T18:44:48.423Z,43.60
2023-04-04T18:47:21.539Z,43.70
2023-04-04T18:49:53.834Z,43.70
2023-04-04T18:52:26.003Z,43.90
2023-04-04T18:54:58.202Z,50.30
2023-04-04T18:57:30.302Z,44.00
2023-04-04T19:00:06.907Z,47.80
2023-04-04T19:02:40.809Z,44.40
2023-04-04T19:05:16.457Z,56.10
2023-04-04T19:07:51.216Z,53.70
2023-04-04T19:10:23.421Z,48.70
2023-04-04T19:12:55.524Z,54.40
2023-04-04T19:15:30.545Z,53.30
2023-04-04T19:18:04.354Z,52.50
2023-04-04T19:20:36.774Z,52.50
2023-04-04T19:23:08.914Z,52.30
2023-04-04T19:25:41.150Z,52.10
2023-04-04T19:28:13.393Z,50.50
2023-04-04T19:30:49.191Z,50.00
2023-04-04T19:33:23.304Z,49.30
2023-04-04T19:35:58.981Z,49.40
2023-04-04T19:38:33.711Z,49.10
2023-04-04T19:41:11.417Z,48.80
2023-04-04T19:43:45.678Z,48.90
2023-04-04T19:46:25.796Z,48.80
2023-04-04T19:48:58.987Z,48.40
2023-04-04T19:51:42.783Z,48.10
2023-04-04T19:54:17.924Z,47.70
2023-04-04T19:56:50.625Z,48.40
2023-04-04T19:59:59.183Z,47.60
2023-04-04T20:02:52.637Z,47.60
2023-04-04T20:05:55.039Z,47.50
2023-04-04T20:08:44.125Z,47.30
2023-04-04T20:11:17.407Z,47.20
2023-04-04T20:13:50.685Z,47.00
2023-04-04T20:16:23.269Z,47.00
2023-04-04T20:18:59.004Z,47.20
2023-04-04T20:21:32.110Z,47.20
2023-04-04T20:24:08.558Z,47.00
2023-04-04T20:26:59.840Z,47.00
2023-04-04T20:29:33.036Z,46.90
2023-04-04T20:32:08.426Z,46.80
2023-04-04T20:34:45.789Z,46.60
2023-04-04T20:37:22.324Z,46.60
2023-04-04T20:39:55.834Z,46.60
2023-04-04T20:42:39.896Z,46.60
2023-04-04T20:45:40.212Z,46.50
2023-04-04T20:48:37.638Z,46.50
2023-04-04T20:51:23.918Z,46.10
2023-04-04T20:53:58.344Z,46.50
2023-04-04T20:56:47.192Z,46.20
2023-04-04T20:59:33.934Z,46.10
2023-04-04T21:02:15.470Z,46.20
2023-04-04T21:04:49.852Z,46.20
2023-04-04T21:07:40.801Z,45.90
2023-04-04T21:10:23.699Z,46.00
2023-04-04T21:12:57.696Z,46.10
2023-04-04T21:15:33.795Z,46.00
2023-04-04T21:18:08.629Z,45.90
2023-04-04T21:21:06.647Z,45.70
2023-04-04T21:23:49.432Z,45.60
2023-04-04T21:26:30.370Z,45.60
2023-04-04T21:29:04.544Z,45.50
2023-04-04T21:31:38.708Z,45.60
2023-04-04T21:34:13.725Z,45.50
2023-04-04T21:36:46.634Z,45.40
2023-04-04T21:39:25.672Z,45.40
2023-04-04T21:41:59.167Z,45.60
2023-04-04T21:44:31.593Z,45.40
2023-04-04T21:47:03.688Z,45.40
2023-04-04T21:49:35.739Z,45.50
2023-04-04T21:52:07.777Z,45.40
2023-04-04T21:54:42.369Z,45.40
2023-04-04T21:57:14.469Z,45.50
2023-04-04T21:59:46.505Z,45.60
2023-04-04T22:02:18.557Z,46.30
2023-04-04T22:04:50.659Z,55.60
2023-04-04T22:07:22.816Z,46.00
2023-04-04T22:09:58.875Z,47.70
2023-04-04T22:12:33.318Z,45.30
2023-04-04T22:15:06.814Z,45.10
2023-04-04T22:17:39.037Z,45.10
2023-04-04T22:20:13.966Z,45.10
2023-04-04T22:22:46.133Z,45.20
2023-04-04T22:25:20.752Z,45.20
2023-04-04T22:27:53.813Z,45.40
2023-04-04T22:30:26.753Z,45.60
2023-04-04T22:35:36.689Z,45.50
2023-04-04T22:38:08.736Z,46.00
2023-04-04T22:40:43.389Z,46.30
2023-04-04T22:45:48.425Z,46.40
2023-04-04T22:48:23.162Z,47.00
2023-04-04T22:50:58.910Z,47.20
2023-04-04T22:53:31.105Z,47.40
2023-04-04T22:56:06.232Z,47.50
2023-04-04T22:58:38.351Z,47.80
2023-04-04T23:01:10.859Z,47.80
2023-04-04T23:03:44.078Z,48.10
2023-04-04T23:06:16.140Z,48.20
2023-04-04T23:08:52.141Z,48.40
2023-04-04T23:11:27.618Z,48.60
2023-04-04T23:14:00.570Z,48.80
2023-04-04T23:16:35.632Z,48.90
2023-04-04T23:19:07.770Z,49.00
2023-04-04T23:21:39.906Z,49.10
2023-04-04T23:24:12.015Z,49.20
2023-04-04T23:26:46.638Z,49.40
2023-04-04T23:29:18.936Z,49.70
2023-04-04T23:31:51.072Z,49.70
2023-04-04T23:34:23.197Z,49.70
2023-04-04T23:36:55.436Z,49.80
2023-04-04T23:39:27.919Z,49.80
2023-04-04T23:42:02.822Z,49.90
2023-04-04T23:44:34.821Z,50.10
2023-04-04T23:47:06.676Z,50.10
2023-04-04T23:49:38.732Z,50.10
2023-04-04T23:52:10.724Z,50.60
2023-04-04T23:54:42.760Z,50.10
2023-04-04T23:57:17.244Z,50.10
2023-04-04T23:59:49.269Z,50.20
